Tiempo atmosférico en la estación meteorológica de Madrid, Ciudad Universitaria, Madrid (664 m.)



Fecha
DESCASC
Temp. máxima en grados centígrados (hora)
DESCASC
Temp. mínima en grados centígrados (hora)
DESCASC
Temp. media en grados centígrados
DESCASC
Racha de viento máxima en m/sg (hora)
DESCASC
Velocidad máxima media en intervalos de 10 minutos(hora)
DESCASC
Precipitaciones diarias en mm
DESCASC
Precipitaciones de 00:00 a 06:00 en mm
DESCASC
Precipitaciones de 06:00 a 12:00 en mm
DESCASC
Precipitaciones de 12:00 a 18:00 en mm
DESCASC
Precipitaciones de 18:00 a 24:00 en mm
DESCASC
16-04-2019 21.9 (16:10) 4.7 (08:20) 13.3 8.61 (01:20) 3.89 (01:20) 0 0 0 0 0
15-04-2019 25.1 (17:00) 10 (07:00) 17.6 15.28 (17:30) 7.22 (19:00) 0 0 0 0 0
14-04-2019 24.4 (17:00) 8.9 (00:00) 16.6 7.78 (15:50) 3.33 (19:20) 0 0 0 0 0
13-04-2019 22.7 (17:40) 1.1 (00:00) 11.9 6.39 (14:50) 2.5 (17:40) 0 0 0 0 0
12-04-2019 20.2 (17:40) 0.8 (00:00) 10.5 7.22 (20:20) 3.61 (20:00) 0 0 0 0 0
11-04-2019 17.8 (17:20) 2.2 (00:00) 10 8.61 (19:50) 4.17 (19:50) 0 0 0 0 0
10-04-2019 16.3 (15:10) 6.3 (00:00) 11.3 12.22 (12:00) 7.22 (11:50) 0.1 0.1 0 0 0
09-04-2019 14.7 (18:30) 4 (00:00) 9.3 13.33 (15:00) 7.22 (18:30) -- 0.1 -- 1 0.1
08-04-2019 18 (16:30) 6.9 (00:00) 12.5 11.67 (16:20) 6.11 (16:20) 1 0.3 0.2 0.3 0.2
07-04-2019 14.5 (14:40) 2.6 (00:00) 8.5 10.83 (13:00) 6.11 (10:00) 0.7 0 0 0 0.7
06-04-2019 13.7 (16:50) 1.4 (00:00) 7.5 15.56 (17:40) 7.5 (14:50) 0.7 0 0 0.4 0.3
05-04-2019 10.6 (00:00) 3.3 (00:00) 7 18.61 (18:20) 7.5 (18:20) 4.9 1.9 0.2 2.2 0.6
04-04-2019 15.5 (16:20) -0.4 (00:00) 7.5 9.72 (16:40) 4.72 (19:00) 0 0 0 0 0
03-04-2019 16.7 (15:40) 4.9 (00:00) 10.8 14.72 (14:50) 6.67 (14:30) 0 0 0 0 0
02-04-2019 21 (14:30) 5.9 (00:00) 13.5 10 (16:50) 4.72 (17:00) 0 0 0 0 0
01-04-2019 19.2 (15:40) 8.1 (00:00) 13.7 5 (16:20) 3.06 (00:10) 0 0 0 0 0
31-03-2019 13.8 (15:50) 6.3 (00:00) 10.1 5.28 (00:10) 2.78 (09:30) 0.7 0 0 0.7 0
30-03-2019 19.6 (16:00) 2.3 (00:00) 11 9.44 (00:50) 3.61 (00:40) 0 0 0 0 0
29-03-2019 19.3 (15:10) 3.6 (00:00) 11.4 8.33 (23:40) 3.61 (13:50) 0 0 0 0 0
28-03-2019 20.2 (16:50) 3.1 (00:00) 11.7 9.72 (00:20) 5.83 (00:20) 0 0 0 0 0
27-03-2019 20 (16:10) 0 (00:00) 10 11.11 (00:10) 5.56 (00:10) 0 0 0 0 0
26-03-2019 22.5 (16:40) 6 (00:00) 14.3 16.94 (03:40) 9.44 (03:40) 0 0 0 0 0
25-03-2019 22.1 (15:20) 6.4 (00:00) 14.3 12.22 (22:30) 6.67 (23:00) 0 0 0 0 0
24-03-2019 21.4 (16:00) 6 (00:00) 13.7 8.61 (14:20) 3.89 (13:40) 0 0 0 0 0
23-03-2019 20.8 (15:10) 2.5 (00:00) 11.6 9.72 (12:10) 4.17 (12:10) 0 0 0 0 0
22-03-2019 18.5 (16:20) -0.6 (-00:0) 8.9 8.33 (14:30) 4.17 (14:30) 0 0 0 0 0
21-03-2019 16.2 (15:30) 1.7 (00:00) 9 10 (00:10) 5.83 (00:10) 0 0 0 0 0
20-03-2019 15.6 (16:20) 2.8 (00:00) 9.2 10.83 (11:20) 6.11 (23:30) 0 0 0 0 0
19-03-2019 17.7 (15:50) 5.1 (00:00) 11.4 10.83 (13:30) 4.72 (00:20) 0 0 0 0 0

Gráficas

Temp. máximas Temp. mínimas Temp. medias Precipitaciones Rachas de viento máximas Velocidades máximas media en intervalos de 10 minutos

Datos horarios

Fecha y hora oficial Temperatura (ºC) Velocidad del viento (km/h) Dirección del viento Racha (km/h) Dirección de racha Precipitación (mm) Presión (hPa) Tendencia (hPa) Humedad (%)
2019-04-17 23:00:00 13.1 10 Este 14 Este 0.3 -- -- 82
2019-04-17 22:00:00 14.6 2 Nordeste 29 Sudoeste 0.2 -- -- 69
2019-04-17 21:00:00 17.8 6 Oeste 27 Oeste 0 -- -- 40
2019-04-17 20:00:00 19.9 12 Oeste 39 Sudoeste 0 -- -- 34
2019-04-17 19:00:00 22.7 9 Sudeste 31 Sur 0 -- -- 29
2019-04-17 18:00:00 23 8 Sudeste 25 Este 0 -- -- 30
2019-04-17 17:00:00 23.5 6 Sur 25 Sur 0 -- -- 29
2019-04-17 16:00:00 22.4 7 Sudeste 29 Sudeste 0 -- -- 32
2019-04-17 15:00:00 20.9 9 Sudeste 29 Sudeste 0 -- -- 34
2019-04-17 14:00:00 20.4 9 Sudeste 27 Sudeste 0 -- -- 37
2019-04-17 13:00:00 17.7 11 Este 22 Nordeste 0 -- -- 45
2019-04-17 12:00:00 15.2 6 Este 23 Este 0 -- -- 49
2019-04-17 11:00:00 13.7 10 Este 24 Este 0 -- -- 55
2019-04-17 10:00:00 12.3 6 Este 21 Este 0 -- -- 61
2019-04-17 09:00:00 10.7 5 Este 22 Este 0 -- -- 66
2019-04-17 08:00:00 10.5 7 Este 21 Sudeste 0 -- -- 65
2019-04-17 07:00:00 10.9 10 Este 24 Este 0 -- -- 63
2019-04-17 06:00:00 11.3 10 Este 25 Este 0 -- -- 60
2019-04-17 05:00:00 12 3 Sudeste 20 Este 0 -- -- 58
2019-04-17 04:00:00 12.6 5 Sudeste 26 Sudeste 0 -- -- 57
2019-04-17 03:00:00 13 9 Sudeste 31 Este 0 -- -- 56
2019-04-17 02:00:00 13.8 12 Sudeste 33 Sur 0 -- -- 54
2019-04-17 01:00:00 15 11 Sudeste 35 Sudeste 0 -- -- 50
2019-04-17 00:00:00 16.9 12 Este 26 Este 0 -- -- 31
2019-04-16 23:00:00 15.1 7 Este 10 Este 0 -- -- 31
2019-04-16 22:00:00 17.4 4 Este 16 Sudeste 0 -- -- 27
2019-04-16 21:00:00 19.3 6 Sudeste 20 Sudeste 0 -- -- 25
2019-04-16 20:00:00 20.1 4 Sudeste 17 Sur 0 -- -- 24
2019-04-16 19:00:00 20.8 4 Sudeste 18 Sudoeste 0 -- -- 24
2019-04-16 18:00:00 21 9 Este 19 Este 0 -- -- 24
2019-04-16 17:00:00 20.3 8 Sur 21 Oeste 0 -- -- 26
2019-04-16 16:00:00 21.7 7 Sudoeste 24 Sudoeste 0 -- -- 25
2019-04-16 15:00:00 19.5 4 Sur 22 Sudoeste 0 -- -- 28
2019-04-16 14:00:00 18.7 6 Sudoeste 24 Oeste 0 -- -- 31
2019-04-16 13:00:00 16.9 2 Sur 18 Sur 0 -- -- 36
2019-04-16 12:00:00 15.9 4 Sudeste 18 Sudeste 0 -- -- 38
2019-04-16 11:00:00 14.6 6 Este 14 Este 0 -- -- 42
2019-04-16 10:00:00 11.4 2 Sudoeste 6 Oeste 0 -- -- 60
2019-04-16 09:00:00 6.6 0 Calma 4 Oeste 0 -- -- 79
2019-04-16 08:00:00 5 2 Noroeste 7 Nordeste 0 -- -- 79
2019-04-16 07:00:00 6 2 Noroeste 6 Noroeste 0 -- -- 77
2019-04-16 06:00:00 6.9 4 Noroeste 8 Noroeste 0 -- -- 74
2019-04-16 05:00:00 7.3 2 Este 9 Oeste 0 -- -- 72
2019-04-16 04:00:00 8.4 4 Oeste 11 Noroeste 0 -- -- 66
2019-04-16 03:00:00 9.3 5 Oeste 13 Oeste 0 -- -- 60
2019-04-16 02:00:00 11 11 Oeste 31 Oeste 0 -- -- 54
2019-04-16 01:00:00 11.5 9 Oeste 19 Oeste 0 -- -- 52
2019-04-16 00:00:00 11.8 7 Oeste 18 Oeste 0 -- -- 49
2019-04-15 23:00:00 12.2 11 Oeste 39 Oeste 0 -- -- 47
2019-04-15 22:00:00 13.3 18 Noroeste 31 Oeste 0 -- -- 46
2019-04-15 21:00:00 15.2 17 Noroeste 43 Sudoeste 0 -- -- 40
2019-04-15 20:00:00 19.2 20 Oeste 45 Oeste 0 -- -- 33
2019-04-15 19:00:00 22.5 26 Oeste 55 Oeste 0 -- -- 29
2019-04-15 18:00:00 23.3 18 Oeste 55 Sudoeste 0 -- -- 27
2019-04-15 17:00:00 24.3 23 Sudoeste 51 Oeste 0 -- -- 25
2019-04-15 16:00:00 24.2 11 Sur 44 Sudoeste 0 -- -- 29
2019-04-15 15:00:00 22.7 10 Sudoeste 42 Sudoeste 0 -- -- 34
2019-04-15 14:00:00 21.2 4 Sudoeste 17 Sudeste 0 -- -- 42
2019-04-15 13:00:00 19.2 6 Sur 19 Sudeste 0 -- -- 46
2019-04-15 12:00:00 17.7 3 Sur 9 Sudoeste 0 -- -- 52
2019-04-15 11:00:00 15.6 3 Oeste 10 Oeste 0 -- -- 60
2019-04-15 10:00:00 14.5 4 Este 11 Este 0 -- -- 65
2019-04-15 09:00:00 11.7 0 Calma 3 Nordeste 0 -- -- 79
2019-04-15 08:00:00 10.2 0 Calma 3 Nordeste 0 -- -- 81
2019-04-15 07:00:00 10 0 Calma 4 Este 0 -- -- 80
2019-04-15 06:00:00 10.7 3 Este 5 Este 0 -- -- 78
2019-04-15 05:00:00 11.2 0 Calma 5 Nordeste 0 -- -- 78
2019-04-15 04:00:00 11.5 2 Este 6 Noroeste 0 -- -- 75
2019-04-15 03:00:00 13.8 4 Norte 8 Nordeste 0 -- -- 69
2019-04-15 02:00:00 14.9 3 Sur 10 Sudoeste 0 -- -- 66
2019-04-15 01:00:00 14.3 3 Sur 7 Sudoeste 0 -- -- 65
2019-04-15 00:00:00 16 0 Calma 8 Sudoeste 0 -- -- 55
2019-04-14 23:00:00 17.4 3 Sudoeste 14 Sudoeste 0 -- -- 49
2019-04-14 22:00:00 18.1 2 Sur 22 Sudoeste 0 -- -- 46
2019-04-14 21:00:00 20.1 9 Sudoeste 21 Sudoeste 0 -- -- 40
2019-04-14 20:00:00 22.1 8 Sudoeste 24 Sudoeste 0 -- -- 35
2019-04-14 19:00:00 23.5 8 Sudoeste 23 Sudoeste 0 -- -- 32
2019-04-14 18:00:00 23.9 5 Sudoeste 19 Sudoeste 0 -- -- 31
2019-04-14 17:00:00 24.3 4 Sudoeste 27 Sudoeste 0 -- -- 31
2019-04-14 16:00:00 23.3 5 Sudoeste 28 Sudoeste 0 -- -- 32
2019-04-14 15:00:00 21.7 4 Sudoeste 27 Sudoeste 0 -- -- 36
2019-04-14 14:00:00 22 7 Oeste 24 Oeste 0 -- -- 38
2019-04-14 13:00:00 19.9 3 Sudoeste 16 Sudoeste 0 -- -- 42
2019-04-14 12:00:00 18.6 5 Oeste 14 Oeste 0 -- -- 44
2019-04-14 11:00:00 16.1 3 Sudoeste 10 Oeste 0 -- -- 50
2019-04-14 10:00:00 13.6 0 Calma 8 Oeste 0 -- -- 54
2019-04-14 09:00:00 10.9 0 Calma 5 Sur 0 -- -- 61
2019-04-14 08:00:00 9 2 Sudoeste 5 Sudoeste 0 -- -- 65
2019-04-14 07:00:00 9.9 2 Sudeste 6 Oeste 0 -- -- 61
2019-04-14 06:00:00 10.5 0 Calma 6 Sur 0 -- -- 54
2019-04-14 05:00:00 11 4 Este 10 Oeste 0 -- -- 49
2019-04-14 04:00:00 10.8 2 Sudeste 18 Noroeste 0 -- -- 45
2019-04-14 03:00:00 10.5 7 Oeste 12 Oeste 0 -- -- 42
2019-04-14 02:00:00 10.9 2 Sudeste 7 Sudoeste 0 -- -- 40
2019-04-14 01:00:00 11.1 3 Oeste 10 Sudoeste 0 -- -- 37
2019-04-14 00:00:00 12.4 3 Sudeste 8 Oeste 0 -- -- 32
2019-04-13 23:00:00 14 4 Oeste 13 Sudoeste 0 -- -- 28
2019-04-13 22:00:00 14.9 2 Sudoeste 11 Sudoeste 0 -- -- 23
2019-04-13 21:00:00 18.1 8 Sudoeste 18 Sudoeste 0 -- -- 17
2019-04-13 20:00:00 19.8 9 Sudoeste 19 Sudoeste 0 -- -- 14
2019-04-13 19:00:00 21.5 9 Oeste 21 Sudoeste 0 -- -- 14
2019-04-13 18:00:00 21.2 4 Sur 17 Sudoeste 0 -- -- 14
2019-04-13 17:00:00 21.4 4 Oeste 18 Oeste 0 -- -- 14
2019-04-13 16:00:00 20.1 2 Sudeste 18 Sudoeste 0 -- -- 14
2019-04-13 15:00:00 19.9 4 Sur 23 Sudoeste 0 -- -- 15
2019-04-13 14:00:00 18.1 4 Este 14 Este 0 -- -- 19
2019-04-13 13:00:00 17.1 3 Sur 12 Sudoeste 0 -- -- 22
2019-04-13 12:00:00 15.1 3 Sudoeste 15 Sudoeste 0 -- -- 28
2019-04-13 11:00:00 13.3 4 Sudoeste 12 Sudoeste 0 -- -- 33
2019-04-13 10:00:00 9.4 2 Oeste 4 Oeste 0 -- -- 53
2019-04-13 09:00:00 3.6 2 Noroeste 6 Norte 0 -- -- 74
2019-04-13 08:00:00 1.1 4 Norte 6 Norte 0 -- -- 75
2019-04-13 07:00:00 1.5 3 Nordeste 5 Nordeste 0 -- -- 73
2019-04-13 06:00:00 2 0 Calma 4 Nordeste 0 -- -- 68
2019-04-13 05:00:00 3.2 0 Calma 5 Noroeste 0 -- -- 62
2019-04-13 04:00:00 4.6 0 Calma 5 Sudoeste 0 -- -- 55
2019-04-13 03:00:00 5.5 2 Sudeste 7 Sur 0 -- -- 50
2019-04-13 02:00:00 6.1 0 Calma 5 Este 0 -- -- 47
2019-04-13 01:00:00 6.6 3 Norte 6 Norte 0 -- -- 45
2019-04-13 00:00:00 8.2 4 Norte 8 Norte 0 -- -- 40
2019-04-12 23:00:00 9.5 6 Norte 11 Norte 0 -- -- 36
2019-04-12 22:00:00 11.9 6 Noroeste 15 Norte 0 -- -- 29
2019-04-12 21:00:00 14.6 8 Nordeste 26 Oeste 0 -- -- 25
2019-04-12 20:00:00 17.4 13 Oeste 23 Oeste 0 -- -- 24
2019-04-12 19:00:00 19.1 4 Oeste 20 Oeste 0 -- -- 22
2019-04-12 18:00:00 19.8 8 Oeste 18 Oeste 0 -- -- 22
2019-04-12 17:00:00 19.6 8 Oeste 24 Oeste 0 -- -- 23
2019-04-12 16:00:00 18.9 6 Oeste 21 Noroeste 0 -- -- 24
2019-04-12 15:00:00 17.6 6 Noroeste 26 Oeste 0 -- -- 27
2019-04-12 14:00:00 15.6 5 Oeste 20 Oeste 0 -- -- 31
2019-04-12 13:00:00 13.7 3 Sur 13 Sur 0 -- -- 35
2019-04-12 12:00:00 12.3 4 Oeste 18 Sudoeste 0 -- -- 38
2019-04-12 11:00:00 11.2 2 Sudoeste 11 Oeste 0 -- -- 44
2019-04-12 10:00:00 8.4 4 Oeste 7 Oeste 0 -- -- 56
2019-04-12 09:00:00 4.7 0 Calma 6 Este 0 -- -- 80
2019-04-12 08:00:00 1 4 Nordeste 9 Noroeste 0 -- -- 80
2019-04-12 07:00:00 1.5 6 Noroeste 9 Noroeste 0 -- -- 75
2019-04-12 06:00:00 3.1 0 Calma 10 Este 0 -- -- 71
2019-04-12 05:00:00 3.9 0 Calma 10 Nordeste 0 -- -- 68
2019-04-12 04:00:00 4.5 8 Nordeste 10 Nordeste 0 -- -- 66
2019-04-12 03:00:00 5.5 6 Norte 14 Nordeste 0 -- -- 59
2019-04-12 02:00:00 6.7 6 Nordeste 18 Nordeste 0 -- -- 52
2019-04-12 01:00:00 8.2 8 Nordeste 19 Nordeste 0 -- -- 48
2019-04-12 00:00:00 9 12 Nordeste 27 Norte 0 -- -- 43
2019-04-11 23:00:00 9 6 Nordeste 17 Nordeste 0 -- -- 38
2019-04-11 22:00:00 10.4 9 Nordeste 24 Nordeste 0 -- -- 34
2019-04-11 21:00:00 12.2 15 Nordeste 31 Nordeste 0 -- -- 31
2019-04-11 20:00:00 13.5 14 Nordeste 31 Nordeste 0 -- -- 29
2019-04-11 19:00:00 14.9 11 Nordeste 28 Nordeste 0 -- -- 27
2019-04-11 18:00:00 15.8 12 Nordeste 24 Norte 0 -- -- 26
2019-04-11 17:00:00 17.4 10 Noroeste 21 Oeste 0 -- -- 24
2019-04-11 16:00:00 16.3 6 Norte 23 Noroeste 0 -- -- 27
2019-04-11 15:00:00 14.3 3 Nordeste 24 Nordeste 0 -- -- 28
2019-04-11 14:00:00 15.3 9 Noroeste 25 Este 0 -- -- 29
2019-04-11 13:00:00 15.8 8 Norte 28 Oeste 0 -- -- 31
2019-04-11 12:00:00 13.7 5 Noroeste 17 Noroeste 0 -- -- 35
2019-04-11 11:00:00 11 4 Norte 12 Noroeste 0 -- -- 43
2019-04-11 10:00:00 8.6 0 Calma 8 Oeste 0 -- -- 54
2019-04-11 09:00:00 4.2 4 Oeste 10 Noroeste 0 -- -- 75
2019-04-11 08:00:00 2.4 4 Este 6 Este 0 -- -- 74
2019-04-11 07:00:00 3.3 0 Calma 12 Nordeste 0 -- -- 68
2019-04-11 06:00:00 3.8 3 Este 12 Nordeste 0 -- -- 67
2019-04-11 05:00:00 4.4 4 Oeste 10 Norte 0 -- -- 61
2019-04-11 04:00:00 6 7 Nordeste 17 Nordeste 0 -- -- 55
2019-04-11 03:00:00 7.5 11 Nordeste 23 Nordeste 0 -- -- 52
2019-04-11 02:00:00 7.7 7 Nordeste 21 Nordeste 0 -- -- 52
2019-04-11 01:00:00 8.8 12 Nordeste 26 Nordeste 0 -- -- 52
2019-04-11 00:00:00 7.1 5 Norte 9 Noroeste 0 -- -- 55
2019-04-10 23:00:00 7.8 7 Oeste 10 Norte 0 -- -- 48
2019-04-10 22:00:00 9.1 5 Noroeste 20 Norte 0 -- -- 42
2019-04-10 21:00:00 10.8 6 Norte 20 Norte 0 -- -- 38
2019-04-10 20:00:00 12.3 13 Noroeste 30 Noroeste 0 -- -- 38
2019-04-10 19:00:00 13.4 16 Noroeste 31 Oeste 0 -- -- 35
2019-04-10 18:00:00 15.4 11 Noroeste 26 Oeste 0 -- -- 31
2019-04-10 17:00:00 16.2 15 Oeste 29 Oeste 0 -- -- 30
2019-04-10 16:00:00 13.7 11 Noroeste 31 Oeste 0 -- -- 33
2019-04-10 15:00:00 15.7 18 Noroeste 41 Noroeste 0 -- -- 34
2019-04-10 14:00:00 13.2 18 Oeste 37 Oeste 0 -- -- 36
2019-04-10 13:00:00 12.1 16 Oeste 40 Oeste 0 -- -- 38
2019-04-10 12:00:00 12.8 23 Oeste 44 Oeste 0 -- -- 38
2019-04-10 11:00:00 12 25 Oeste 41 Noroeste 0 -- -- 40
2019-04-10 10:00:00 10.3 13 Oeste 41 Sudoeste 0 -- -- 50
2019-04-10 09:00:00 8.8 14 Sudoeste 23 Sudoeste 0 -- -- 55
2019-04-10 08:00:00 7 7 Sudoeste 22 Sudoeste 0 -- -- 59
2019-04-10 07:00:00 7 10 Sudoeste 26 Oeste 0 -- -- 59
2019-04-10 06:00:00 6.9 7 Oeste 23 Oeste 0 -- -- 58
2019-04-10 05:00:00 6.8 17 Noroeste 25 Oeste 0 -- -- 61
2019-04-10 04:00:00 6.7 10 Oeste 20 Oeste 0 -- -- 64
2019-04-10 03:00:00 6.8 10 Oeste 21 Sudoeste 0 -- -- 65
2019-04-10 02:00:00 6.9 10 Oeste 20 Oeste 0 -- -- 68
2019-04-10 01:00:00 6.6 7 Oeste 22 Oeste 0.1 -- -- 70
2019-04-10 00:00:00 7.1 7 Oeste 45 Oeste 0.1 -- -- 70
2019-04-09 23:00:00 9.2 15 Oeste 29 Oeste 0 -- -- 48
2019-04-09 22:00:00 9.1 12 Oeste 30 Oeste 0 -- -- 46
2019-04-09 21:00:00 9.6 13 Oeste 39 Oeste 0 -- -- 43
2019-04-09 20:00:00 12 18 Oeste 41 Noroeste 0 -- -- 34
2019-04-09 19:00:00 13.7 18 Oeste 48 Noroeste 0 -- -- 28
2019-04-09 18:00:00 13.2 23 Oeste 48 Oeste 0 -- -- 33
2019-04-09 17:00:00 11.6 10 Noroeste 44 Noroeste 0.4 -- -- 55
2019-04-09 16:00:00 12.1 14 Oeste 26 Oeste 0.1 -- -- 56
2019-04-09 15:00:00 7.5 24 Oeste 48 Sudoeste 0.5 -- -- 70
2019-04-09 14:00:00 10 14 Sudoeste 39 Oeste 0 -- -- 60
2019-04-09 13:00:00 10.3 23 Oeste 43 Oeste 0 -- -- 55
2019-04-09 12:00:00 7.7 10 Sudoeste 32 Oeste 0.1 -- -- 77
2019-04-09 11:00:00 7.9 11 Sudoeste 34 Sudoeste -- -- -- 68
2019-04-09 10:00:00 8.1 9 Sudoeste 22 Oeste 0 -- -- 74
2019-04-09 09:00:00 6.3 6 Sudoeste 15 Sudoeste 0 -- -- 84
2019-04-09 08:00:00 4.4 4 Oeste 17 Oeste 0 -- -- 85
2019-04-09 07:00:00 4.4 2 Sur 13 Sudoeste 0 -- -- 85
2019-04-09 06:00:00 4.7 6 Oeste 14 Oeste 0.1 -- -- 84
2019-04-09 05:00:00 5 3 Sudoeste 11 Sudoeste 0 -- -- 83
2019-04-09 04:00:00 5.1 4 Sudoeste 11 Oeste 0 -- -- 82
2019-04-09 03:00:00 5 5 Oeste 18 Oeste 0 -- -- 82
2019-04-09 02:00:00 5.4 4 Oeste 9 Oeste 0 -- -- 81
2019-04-09 01:00:00 6.9 0 Calma 5 Oeste 0 -- -- 79
2019-04-09 00:00:00 7 2 Oeste 19 Noroeste 0 -- -- 78
2019-04-08 23:00:00 7.5 12 Noroeste 35 Oeste 0.1 -- -- 68
2019-04-08 22:00:00 10.3 8 Noroeste 24 Oeste 0 -- -- 49
2019-04-08 21:00:00 11 9 Noroeste 21 Oeste 0 -- -- 49
2019-04-08 20:00:00 13 11 Noroeste 38 Sudoeste 0 -- -- 39
2019-04-08 19:00:00 16.3 14 Sudoeste 34 Oeste 0.1 -- -- 30
2019-04-08 18:00:00 15.8 15 Oeste 32 Sudoeste 0 -- -- 31
2019-04-08 17:00:00 17.2 11 Sudoeste 42 Oeste 0.1 -- -- 29
2019-04-08 16:00:00 17.3 17 Oeste 38 Sudoeste 0 -- -- 32
2019-04-08 15:00:00 15.9 20 Oeste 40 Oeste 0.1 -- -- 39
2019-04-08 14:00:00 13.5 17 Oeste 40 Oeste 0 -- -- 58
2019-04-08 13:00:00 12.1 9 Oeste 20 Sudoeste 0.1 -- -- 72
2019-04-08 12:00:00 11.2 8 Sudoeste 26 Sudoeste 0 -- -- 81
2019-04-08 11:00:00 10.1 8 Sudoeste 21 Sudoeste 0.1 -- -- 86
2019-04-08 10:00:00 8.9 3 Sudoeste 16 Sudoeste 0 -- -- 87
2019-04-08 09:00:00 8.4 9 Sudoeste 17 Sudoeste 0 -- -- 87
2019-04-08 08:00:00 8 3 Sur 9 Sur 0.1 -- -- 87
2019-04-08 07:00:00 7.7 0 Calma 6 Oeste 0 -- -- 87
2019-04-08 06:00:00 7.6 2 Norte 10 Sudoeste 0.1 -- -- 87
2019-04-08 05:00:00 7.7 3 Oeste 8 Sudoeste 0 -- -- 87
2019-04-08 04:00:00 7.6 0 Calma 8 Sur 0 -- -- 87
2019-04-08 03:00:00 7.5 2 Sur 9 Sudoeste 0.1 -- -- 87
2019-04-08 02:00:00 7.6 3 Sur 10 Sur 0 -- -- 87
2019-04-08 01:00:00 7.6 3 Sudoeste 9 Sudoeste 0.1 -- -- 87
2019-04-08 00:00:00 7.4 0 Calma -- -- 0 -- -- 87
2019-04-07 23:00:00 7.3 0 Calma 5 Sur 0.1 -- -- 85
2019-04-07 22:00:00 7.6 0 Calma 5 Sudoeste 0.1 -- -- 84
2019-04-07 21:00:00 7.7 5 Oeste 12 Sudoeste 0.2 -- -- 82
2019-04-07 20:00:00 8 6 Oeste 14 Oeste 0.2 -- -- 82
2019-04-07 19:00:00 9.1 5 Oeste 14 Sudoeste 0.1 -- -- 69
2019-04-07 18:00:00 10.6 9 Sudoeste 34 Sudoeste 0 -- -- 51
2019-04-07 17:00:00 12.1 14 Oeste 31 Oeste 0 -- -- 36
2019-04-07 16:00:00 13.4 11 Oeste 32 Oeste 0 -- -- 31
2019-04-07 15:00:00 12.9 12 Oeste 27 Oeste 0 -- -- 30
2019-04-07 14:00:00 12.9 13 Oeste 30 Oeste 0 -- -- 32
2019-04-07 13:00:00 13.7 21 Oeste 39 Noroeste 0 -- -- 32
2019-04-07 12:00:00 11.4 16 Oeste 31 Oeste 0 -- -- 36
2019-04-07 11:00:00 11 17 Oeste 33 Oeste 0 -- -- 43
2019-04-07 10:00:00 8 22 Oeste 37 Sudoeste 0 -- -- 53
2019-04-07 09:00:00 6.2 4 Sur 14 Sudoeste 0 -- -- 65
2019-04-07 08:00:00 2.9 0 Calma 14 Oeste 0 -- -- 80
2019-04-07 07:00:00 3.6 10 Oeste 22 Oeste 0 -- -- 82
2019-04-07 06:00:00 3.8 9 Sudoeste 21 Oeste 0 -- -- 82
2019-04-07 05:00:00 3.7 10 Sudoeste 21 Sudoeste 0 -- -- 82
2019-04-07 04:00:00 4.5 6 Sudoeste 20 Sudoeste 0 -- -- 80
2019-04-07 03:00:00 4.2 10 Sudoeste 22 Sudoeste 0 -- -- 79
2019-04-07 02:00:00 4.3 12 Sudoeste 24 Oeste 0 -- -- 77
2019-04-07 01:00:00 4.2 15 Sudoeste 23 Sudoeste 0 -- -- 75
2019-04-07 00:00:00 4.2 4 Sudoeste 24 Sudoeste 0 -- -- 72
2019-04-06 23:00:00 5.4 15 Oeste 26 Oeste 0 -- -- 64
2019-04-06 22:00:00 6.4 4 Sur 19 Sudoeste 0 -- -- 63
2019-04-06 21:00:00 6.8 4 Sudoeste 44 Oeste 0 -- -- 61
2019-04-06 20:00:00 8.2 12 Sudoeste 36 Oeste 0.3 -- -- 57
2019-04-06 19:00:00 8.2 11 Noroeste 41 Sudoeste 0 -- -- 52
2019-04-06 18:00:00 9.3 23 Oeste 56 Sudoeste 0.2 -- -- 53
2019-04-06 17:00:00 12.6 21 Sudoeste 46 Sudoeste 0 -- -- 41
2019-04-06 16:00:00 10.6 18 Sudoeste 46 Sudoeste 0 -- -- 45
2019-04-06 15:00:00 11.5 19 Sudoeste 48 Oeste 0 -- -- 45
2019-04-06 14:00:00 9.1 13 Sudoeste 47 Sudoeste 0 -- -- 54
2019-04-06 13:00:00 8.6 16 Oeste 35 Sudoeste 0.2 -- -- 66
2019-04-06 12:00:00 6.4 17 Sudoeste 34 Sudoeste 0 -- -- 69
2019-04-06 11:00:00 5.5 13 Sudoeste 29 Sudoeste 0 -- -- 76
2019-04-06 10:00:00 4.6 5 Sudoeste 18 Sudoeste 0 -- -- 80
2019-04-06 09:00:00 3.2 2 Sur 18 Oeste 0 -- -- 87
2019-04-06 08:00:00 2.1 4 Sur 21 Sudoeste 0 -- -- 89
2019-04-06 07:00:00 1.6 6 Sudoeste 18 Sudoeste 0 -- -- 89
2019-04-06 06:00:00 2 7 Sudoeste 18 Sudoeste 0 -- -- 88
2019-04-06 05:00:00 2.8 6 Sudoeste 21 Sudoeste 0 -- -- 88
2019-04-06 04:00:00 3.1 13 Oeste 24 Oeste 0 -- -- 88
2019-04-06 03:00:00 3.5 8 Sudoeste 17 Sudoeste 0 -- -- 86
2019-04-06 02:00:00 3.5 4 Sudoeste 18 Sudoeste 0 -- -- 85
2019-04-06 01:00:00 3.7 9 Sudoeste 22 Oeste 0 -- -- 81
2019-04-06 00:00:00 3.8 8 Oeste 23 Sudoeste 0 -- -- 78
2019-04-05 23:00:00 3.9 8 Sudoeste 17 Oeste 0 -- -- 77
2019-04-05 22:00:00 4.4 6 Sudoeste 13 Oeste 0 -- -- 75
2019-04-05 21:00:00 4.5 3 Oeste 21 Oeste 0 -- -- 75
2019-04-05 20:00:00 5.6 12 Sudoeste 24 Noroeste 0 -- -- 76
2019-04-05 19:00:00 4.9 11 Oeste 67 Sudoeste 0.6 -- -- 88
2019-04-05 18:00:00 7.7 10 Oeste 27 Oeste 0 -- -- 66
2019-04-05 17:00:00 5.5 15 Oeste 45 Oeste 0 -- -- 78
2019-04-05 16:00:00 9.2 14 Sudoeste 27 Sudoeste 0.1 -- -- 68
2019-04-05 15:00:00 5.5 10 Oeste 51 Sudoeste 1.6 -- -- 85
2019-04-05 14:00:00 7.4 8 Sudoeste 37 Sudoeste 0.5 -- -- 75
2019-04-05 13:00:00 7.6 8 Sur 24 Sudeste 0 -- -- 68
2019-04-05 12:00:00 6.7 5 Sur 22 Sudoeste 0 -- -- 77
2019-04-05 11:00:00 6 4 Sur 23 Sudoeste 0.1 -- -- 83
2019-04-05 10:00:00 6.1 4 Sur 22 Sur 0.1 -- -- 78
2019-04-05 09:00:00 5.9 6 Sur 17 Sur 0 -- -- 84
2019-04-05 08:00:00 5.6 3 Sur 23 Sudoeste 0 -- -- 85
2019-04-05 07:00:00 5.2 3 Sur 23 Sudoeste 0 -- -- 85
2019-04-05 06:00:00 4.9 9 Sudoeste 21 Sudoeste 0.1 -- -- 86
2019-04-05 05:00:00 4.9 8 Sudoeste 20 Sudoeste 0.6 -- -- 86
2019-04-05 04:00:00 5.1 9 Sudoeste 31 Sudoeste 0.9 -- -- 84
2019-04-05 03:00:00 6 9 Sudoeste 40 Oeste 0.3 -- -- 71
2019-04-05 02:00:00 9 23 Oeste 41 Sudoeste 0 -- -- 40
2019-04-05 01:00:00 10.1 10 Sudoeste 22 Sudoeste 0 -- -- 33
2019-04-05 00:00:00 10.6 6 Sudoeste 18 Sudoeste 0 -- -- 32
2019-04-04 23:00:00 10.8 9 Sudoeste 21 Sudoeste 0 -- -- 31
2019-04-04 22:00:00 11.2 8 Oeste 19 Oeste 0 -- -- 29
2019-04-04 21:00:00 11.5 8 Sudoeste 22 Sudoeste 0 -- -- 28
2019-04-04 20:00:00 12.5 13 Sudoeste 29 Oeste 0 -- -- 25
2019-04-04 19:00:00 13.6 17 Sudoeste 34 Sudoeste 0 -- -- 24
2019-04-04 18:00:00 15 6 Sudoeste 33 Sudoeste 0 -- -- 22
2019-04-04 17:00:00 14.6 7 Sudoeste 35 Oeste 0 -- -- 22
2019-04-04 16:00:00 13.9 7 Sudoeste 29 Oeste 0 -- -- 24
2019-04-04 15:00:00 13.1 8 Oeste 30 Sudoeste 0 -- -- 25
2019-04-04 14:00:00 13.2 5 Sudoeste 18 Sudoeste 0 -- -- 28
2019-04-04 13:00:00 11.2 3 Sur 21 Sudoeste 0 -- -- 32
2019-04-04 12:00:00 9.3 4 Sur 17 Oeste 0 -- -- 35
2019-04-04 11:00:00 8.7 4 Oeste 14 Sudoeste 0 -- -- 36
2019-04-04 10:00:00 6.9 5 Sudoeste 11 Sudoeste 0 -- -- 42
2019-04-04 09:00:00 3 4 Sudoeste 10 Sudoeste 0 -- -- 53
2019-04-04 08:00:00 0.9 6 Norte 16 Nordeste 0 -- -- 56
2019-04-04 07:00:00 -0.4 6 Nordeste 10 Nordeste 0 -- -- 58
2019-04-04 06:00:00 0.6 3 Noroeste 10 Oeste 0 -- -- 54
2019-04-04 05:00:00 1.9 0 Calma 11 Nordeste 0 -- -- 47
2019-04-04 04:00:00 2.8 8 Norte 17 Noroeste 0 -- -- 43
2019-04-04 03:00:00 4.9 10 Norte 22 Norte 0 -- -- 39
2019-04-04 02:00:00 5.4 12 Norte 26 Noroeste 0 -- -- 37
2019-04-04 01:00:00 6.5 13 Noroeste 23 Norte 0 -- -- 37
2019-04-04 00:00:00 7.2 13 Noroeste 29 Noroeste 0 -- -- 37
2019-04-03 23:00:00 6.5 8 Norte 19 Norte 0 -- -- 37
2019-04-03 22:00:00 7 8 Noroeste 21 Noroeste 0 -- -- 34
2019-04-03 21:00:00 9.8 14 Noroeste 39 Oeste 0 -- -- 30
2019-04-03 20:00:00 12.1 16 Noroeste 38 Noroeste 0 -- -- 28
2019-04-03 19:00:00 12.7 19 Noroeste 39 Noroeste 0 -- -- 30
2019-04-03 18:00:00 13.5 19 Noroeste 39 Noroeste 0 -- -- 28
2019-04-03 17:00:00 15.3 21 Noroeste 44 Oeste 0 -- -- 29
2019-04-03 16:00:00 15.5 22 Noroeste 48 Oeste 0 -- -- 31
2019-04-03 15:00:00 15.6 21 Noroeste 53 Noroeste 0 -- -- 34
2019-04-03 14:00:00 14.8 19 Noroeste 44 Oeste 0 -- -- 36
2019-04-03 13:00:00 14.7 18 Noroeste 34 Noroeste 0 -- -- 38
2019-04-03 12:00:00 15.4 15 Oeste 35 Oeste 0 -- -- 39
2019-04-03 11:00:00 14.2 10 Oeste 23 Oeste 0 -- -- 44
2019-04-03 10:00:00 11.7 5 Oeste 13 Oeste 0 -- -- 50
2019-04-03 09:00:00 7.6 3 Oeste 7 Sur 0 -- -- 60
2019-04-03 08:00:00 5 3 Sur 6 Sur 0 -- -- 64
2019-04-03 07:00:00 6.3 5 Noroeste 12 Oeste 0 -- -- 61
2019-04-03 06:00:00 6.2 6 Noroeste 15 Noroeste 0 -- -- 63
2019-04-03 05:00:00 6.2 5 Noroeste 8 Noroeste 0 -- -- 63
2019-04-03 04:00:00 7.3 5 Oeste 14 Oeste 0 -- -- 64
2019-04-03 03:00:00 8 3 Oeste 9 Oeste 0 -- -- 70
2019-04-03 02:00:00 9.4 3 Noroeste 6 Oeste 0 -- -- 71
2019-04-03 01:00:00 9.9 4 Oeste 12 Sudoeste 0 -- -- 70
2019-04-03 00:00:00 10.6 2 Sur 9 Sudoeste 0 -- -- 65
2019-04-02 23:00:00 12.3 4 Sudoeste 14 Oeste 0 -- -- 61
2019-04-02 22:00:00 12.3 3 Sur 15 Sur 0 -- -- 57
2019-04-02 21:00:00 13.8 5 Sudoeste 17 Oeste 0 -- -- 44
2019-04-02 20:00:00 15 8 Sudoeste 16 Sur 0 -- -- 41
2019-04-02 19:00:00 16.6 9 Sudoeste 24 Sudoeste 0 -- -- 38
2019-04-02 18:00:00 17.8 9 Oeste 27 Noroeste 0 -- -- 40
2019-04-02 17:00:00 16.5 17 Oeste 36 Noroeste 0 -- -- 38
2019-04-02 16:00:00 18.3 4 Sudoeste 32 Oeste 0 -- -- 33
2019-04-02 15:00:00 18 9 Noroeste 23 Oeste 0 -- -- 35
2019-04-02 14:00:00 17.7 5 Oeste 17 Oeste 0 -- -- 37
2019-04-02 13:00:00 18.2 0 Calma 14 Noroeste 0 -- -- 40
2019-04-02 12:00:00 16 4 Oeste 13 Oeste 0 -- -- 46
2019-04-02 11:00:00 12.8 3 Oeste 9 Sudoeste 0 -- -- 61
2019-04-02 10:00:00 9.1 0 Calma 7 Sudoeste 0 -- -- 75
2019-04-02 09:00:00 7.3 0 Calma 10 Norte 0 -- -- 83
2019-04-02 08:00:00 6.2 5 Norte 9 Norte 0 -- -- 85
2019-04-02 07:00:00 6.7 0 Calma 8 Sur 0 -- -- 82
2019-04-02 06:00:00 7.2 2 Sur 8 Sudoeste 0 -- -- 79
2019-04-02 05:00:00 8.5 4 Sudoeste 8 Sudoeste 0 -- -- 75
2019-04-02 04:00:00 7.9 3 Sur 5 Sur 0 -- -- 74
2019-04-02 03:00:00 8.5 2 Noroeste 7 Sudeste 0 -- -- 70
2019-04-02 02:00:00 9.1 2 Norte 8 Norte 0 -- -- 68
2019-04-02 01:00:00 10.3 3 Oeste 6 Noroeste 0 -- -- 61
2019-04-02 00:00:00 11.3 2 Oeste 17 Sudoeste 0 -- -- 58
2019-04-01 23:00:00 12.2 5 Sudoeste 14 Sudoeste 0 -- -- 55
2019-04-01 22:00:00 11.7 4 Oeste 9 Oeste 0 -- -- 52
2019-04-01 21:00:00 13.7 4 Sur 10 Sur 0 -- -- 46
2019-04-01 20:00:00 15.3 2 Sur 13 Sudoeste 0 -- -- 43
2019-04-01 19:00:00 16.4 3 Sur 15 Sudeste 0 -- -- 40
2019-04-01 18:00:00 17.8 4 Sur 18 Sudoeste 0 -- -- 41
2019-04-01 17:00:00 17.5 5 Sudoeste 18 Noroeste 0 -- -- 39
2019-04-01 16:00:00 16.8 3 Sudeste 14 Sudeste 0 -- -- 43
2019-04-01 15:00:00 15.6 3 Este 11 Sudeste 0 -- -- 46
2019-04-01 14:00:00 14.4 0 Calma 12 Nordeste 0 -- -- 55
2019-04-01 13:00:00 13.3 4 Oeste 11 Oeste 0 -- -- 60
2019-04-01 12:00:00 12.1 4 Nordeste 10 Este 0 -- -- 67
2019-04-01 11:00:00 11.7 3 Nordeste 12 Nordeste 0 -- -- 69
2019-04-01 10:00:00 10.4 5 Este 12 Nordeste 0 -- -- 76
2019-04-01 09:00:00 9.1 5 Este 10 Este 0 -- -- 80
2019-04-01 08:00:00 8.2 4 Norte 10 Nordeste 0 -- -- 81
2019-04-01 07:00:00 8.4 6 Nordeste 13 Nordeste 0 -- -- 80
2019-04-01 06:00:00 8.6 5 Nordeste 10 Nordeste 0 -- -- 80
2019-04-01 05:00:00 8.6 4 Nordeste 10 Este 0 -- -- 80
2019-04-01 04:00:00 8.8 5 Este 13 Este 0 -- -- 81
2019-04-01 03:00:00 8.9 8 Nordeste 16 Este 0 -- -- 81
2019-04-01 02:00:00 8.9 8 Este 15 Nordeste 0 -- -- 82
2019-04-01 01:00:00 9.1 8 Nordeste 15 Nordeste 0 -- -- 80
2019-04-01 00:00:00 9.3 9 Nordeste 18 Nordeste 0 -- -- 79
2019-03-31 23:00:00 10 10 Nordeste 18 Nordeste 0 -- -- 77
2019-03-31 22:00:00 10.3 6 Este 15 Nordeste 0 -- -- 75
2019-03-31 21:00:00 10.4 7 Este 19 Este 0 -- -- 71
2019-03-31 20:00:00 10.9 10 Este 18 Este 0 -- -- 68
2019-03-31 19:00:00 11.4 6 Este 15 Este 0 -- -- 68
2019-03-31 18:00:00 11.5 5 Nordeste 18 Nordeste 0 -- -- 70
2019-03-31 17:00:00 12.5 10 Este 18 Este 0 -- -- 64
2019-03-31 16:00:00 12.4 9 Este 19 Nordeste 0 -- -- 59
2019-03-31 15:00:00 12 6 Este 15 Este 0 -- -- 61
2019-03-31 14:00:00 11.1 4 Norte 9 Nordeste 0.4 -- -- 73
2019-03-31 13:00:00 9.8 6 Este 15 Este 0.3 -- -- 64
2019-03-31 12:00:00 11.5 4 Este 14 Este 0 -- -- 51
2019-03-31 11:00:00 11.7 9 Este 16 Nordeste 0 -- -- 52
2019-03-31 10:00:00 11.3 8 Este 18 Este 0 -- -- 55
2019-03-31 09:00:00 8.1 7 Este 14 Este 0 -- -- 65
2019-03-31 08:00:00 6.9 3 Norte 14 Sudeste 0 -- -- 65
2019-03-31 07:00:00 7.5 4 Este 15 Sudeste 0 -- -- 64
2019-03-31 06:00:00 7.5 5 Este 10 Nordeste 0 -- -- 61
2019-03-31 05:00:00 9.4 5 Este 11 Este 0 -- -- 59
2019-03-31 03:00:00 10.9 4 Este 19 Sudeste 0 -- -- 57
2019-03-31 01:00:00 11.6 7 Este 19 Este 0 -- -- 54
2019-03-31 00:00:00 12.4 13 Este 25 Este 0 -- -- 49
2019-03-30 23:00:00 13.6 7 Sudeste 23 Sur 0 -- -- 43
2019-03-30 22:00:00 10.2 2 Este 7 Nordeste 0 -- -- 39
2019-03-30 21:00:00 11.6 2 Noroeste 7 Norte 0 -- -- 37
2019-03-30 20:00:00 13.9 0 Calma 15 Sudoeste 0 -- -- 34
2019-03-30 19:00:00 16.6 3 Sur 13 Este 0 -- -- 31
2019-03-30 18:00:00 18.1 5 Este 15 Este 0 -- -- 28
2019-03-30 17:00:00 18.2 4 Sudeste 17 Este 0 -- -- 30
2019-03-30 16:00:00 18.7 0 Calma 16 Sudeste 0 -- -- 30
2019-03-30 15:00:00 18.7 5 Sudoeste 18 Este 0 -- -- 31
2019-03-30 14:00:00 17.6 3 Sur 18 Este 0 -- -- 34
2019-03-30 13:00:00 16.7 3 Sudeste 16 Este 0 -- -- 36
2019-03-30 12:00:00 14.3 0 Calma 21 Este 0 -- -- 37
2019-03-30 11:00:00 14.8 9 Nordeste 20 Nordeste 0 -- -- 37
2019-03-30 10:00:00 11 9 Este 19 Este 0 -- -- 41
2019-03-30 09:00:00 10.1 9 Este 16 Este 0 -- -- 45
2019-03-30 08:00:00 3.6 6 Nordeste 11 Nordeste 0 -- -- 63
2019-03-30 07:00:00 3.6 6 Nordeste 21 Nordeste 0 -- -- 55
2019-03-30 06:00:00 4.5 3 Nordeste 15 Este 0 -- -- 49
2019-03-30 05:00:00 7 8 Este 17 Sudeste 0 -- -- 46
2019-03-30 04:00:00 7.1 9 Este 17 Este 0 -- -- 46
2019-03-30 03:00:00 8.2 2 Este 24 Este 0 -- -- 47
2019-03-30 02:00:00 8.7 7 Sudeste 24 Sudeste 0 -- -- 47
2019-03-30 01:00:00 9.6 10 Sudeste 34 Sudeste 0 -- -- 46
2019-03-30 00:00:00 10.5 9 Sudeste 30 Sudeste 0 -- -- 44
2019-03-29 23:00:00 11.7 10 Sudeste 28 Este 0 -- -- 42
2019-03-29 22:00:00 12.9 5 Sudeste 20 Este 0 -- -- 37
2019-03-29 21:00:00 13.6 6 Sudeste 22 Este 0 -- -- 35
2019-03-29 20:00:00 13.9 6 Sudeste 23 Este 0 -- -- 34
2019-03-29 19:00:00 15.3 7 Sudeste 24 Sudeste 0 -- -- 33
2019-03-29 18:00:00 17.2 4 Sudeste 26 Este 0 -- -- 29
2019-03-29 17:00:00 18.2 7 Sudeste 26 Este 0 -- -- 28
2019-03-29 16:00:00 17.9 13 Este 27 Este 0 -- -- 27
2019-03-29 15:00:00 18.1 13 Este 26 Este 0 -- -- 29
2019-03-29 14:00:00 17.3 7 Este 29 Este 0 -- -- 29
2019-03-29 13:00:00 15.4 8 Sudeste 22 Este 0 -- -- 31
2019-03-29 12:00:00 14.5 7 Este 26 Este 0 -- -- 33
2019-03-29 11:00:00 13.6 11 Este 27 Este 0 -- -- 34
2019-03-29 10:00:00 13.1 9 Este 20 Este 0 -- -- 36
2019-03-29 09:00:00 11.2 11 Este 20 Nordeste 0 -- -- 39
2019-03-29 08:00:00 5.9 8 Nordeste 15 Este 0 -- -- 49
2019-03-29 07:00:00 4.9 8 Nordeste 13 Este 0 -- -- 45
2019-03-29 06:00:00 6 8 Nordeste 16 Nordeste 0 -- -- 45
2019-03-29 05:00:00 6.3 9 Nordeste 19 Nordeste 0 -- -- 45
2019-03-29 04:00:00 5.6 9 Nordeste 16 Nordeste 0 -- -- 44
2019-03-29 03:00:00 5.1 5 Este 13 Este 0 -- -- 44
2019-03-29 02:00:00 8.1 0 Calma 20 Sudeste 0 -- -- 37
2019-03-29 01:00:00 10.6 6 Sudeste 21 Sur 0 -- -- 35
2019-03-29 00:00:00 7.5 3 Sudeste 9 Sudeste 0 -- -- 38
2019-03-28 23:00:00 7.6 0 Calma 4 Este 0 -- -- 34
2019-03-28 22:00:00 9.4 0 Calma 4 Oeste 0 -- -- 31
2019-03-28 21:00:00 11.1 4 Oeste 6 Oeste 0 -- -- 29
2019-03-28 20:00:00 13.1 3 Sudoeste 8 Oeste 0 -- -- 27
2019-03-28 19:00:00 16.8 3 Sudeste 17 Este 0 -- -- 24
2019-03-28 18:00:00 18.1 3 Sudeste 15 Nordeste 0 -- -- 23
2019-03-28 17:00:00 18.7 0 Calma 17 Sudoeste 0 -- -- 24
2019-03-28 16:00:00 18.8 8 Este 17 Este 0 -- -- 24
2019-03-28 15:00:00 18.5 4 Sudeste 18 Sudeste 0 -- -- 24
2019-03-28 14:00:00 18.6 3 Sudoeste 16 Sudoeste 0 -- -- 25
2019-03-28 13:00:00 17.1 4 Sudeste 16 Este 0 -- -- 26
2019-03-28 12:00:00 16.3 3 Este 14 Este 0 -- -- 27
2019-03-28 11:00:00 15 2 Este 12 Nordeste 0 -- -- 30
2019-03-28 10:00:00 13.5 4 Este 10 Este 0 -- -- 35
2019-03-28 09:00:00 10.2 3 Oeste 6 Oeste 0 -- -- 42
2019-03-28 08:00:00 4.7 0 Calma 11 Este 0 -- -- 48
2019-03-28 07:00:00 3.9 5 Nordeste 15 Este 0 -- -- 43
2019-03-28 06:00:00 6.6 9 Este 21 Este 0 -- -- 38
2019-03-28 05:00:00 7.6 13 Este 20 Este 0 -- -- 37
2019-03-28 04:00:00 6.6 9 Nordeste 17 Nordeste 0 -- -- 37
2019-03-28 03:00:00 7.3 10 Nordeste 17 Nordeste 0 -- -- 35
2019-03-28 02:00:00 8.5 6 Este 22 Este 0 -- -- 34
2019-03-28 01:00:00 10.7 12 Este 35 Este 0 -- -- 31
2019-03-28 00:00:00 11.6 18 Nordeste 40 Nordeste 0 -- -- 30
2019-03-27 23:00:00 12.7 15 Nordeste 30 Norte 0 -- -- 29
2019-03-27 22:00:00 10.7 6 Nordeste 13 Norte 0 -- -- 33
2019-03-27 21:00:00 10.8 3 Noroeste 8 Oeste 0 -- -- 31
2019-03-27 20:00:00 12.8 3 Oeste 11 Oeste 0 -- -- 28
2019-03-27 19:00:00 17 7 Oeste 15 Este 0 -- -- 25
2019-03-27 18:00:00 18.1 5 Este 18 Sudeste 0 -- -- 24
2019-03-27 17:00:00 18.7 7 Este 21 Nordeste 0 -- -- 24
2019-03-27 16:00:00 19.1 2 Este 19 Sudeste 0 -- -- 26
2019-03-27 15:00:00 17.8 0 Calma 17 Oeste 0 -- -- 29
2019-03-27 14:00:00 17.3 3 Oeste 18 Oeste 0 -- -- 31
2019-03-27 13:00:00 16.9 4 Norte 17 Oeste 0 -- -- 33
2019-03-27 12:00:00 14.9 6 Sudoeste 17 Sudoeste 0 -- -- 35
2019-03-27 11:00:00 13 0 Calma 12 Oeste 0 -- -- 39
2019-03-27 10:00:00 11.5 5 Oeste 12 Noroeste 0 -- -- 43
2019-03-27 09:00:00 8 3 Noroeste 6 Norte 0 -- -- 43
2019-03-27 08:00:00 1.6 2 Noroeste 5 Norte 0 -- -- 53
2019-03-27 07:00:00 0.4 0 Calma 4 Nordeste 0 -- -- 51
2019-03-27 06:00:00 2 0 Calma 4 Sudoeste 0 -- -- 46
2019-03-27 05:00:00 4 3 Este 10 Nordeste 0 -- -- 38
2019-03-27 04:00:00 5.6 7 Nordeste 17 Este 0 -- -- 34
2019-03-27 03:00:00 7.2 9 Este 18 Este 0 -- -- 31
2019-03-27 02:00:00 8 10 Este 25 Este 0 -- -- 30
2019-03-27 01:00:00 9.4 15 Nordeste 40 Este 0 -- -- 28
2019-03-27 00:00:00 10.8 17 Nordeste 37 Este 0 -- -- 25
2019-03-26 23:00:00 12.5 20 Nordeste 35 Nordeste 0 -- -- 25
2019-03-26 22:00:00 14.3 17 Nordeste 36 Este 0 -- -- 24
2019-03-26 21:00:00 15.5 21 Este 41 Este 0 -- -- 23
2019-03-26 20:00:00 16.1 14 Nordeste 41 Nordeste 0 -- -- 23
2019-03-26 19:00:00 17.8 20 Nordeste 41 Nordeste 0 -- -- 23
2019-03-26 18:00:00 20.1 19 Nordeste 37 Este 0 -- -- 24
2019-03-26 17:00:00 21.6 13 Nordeste 36 Este 0 -- -- 24
2019-03-26 16:00:00 21.2 15 Este 32 Nordeste 0 -- -- 24
2019-03-26 15:00:00 21.8 10 Nordeste 30 Este 0 -- -- 27
2019-03-26 14:00:00 21 10 Nordeste 28 Nordeste 0 -- -- 30
2019-03-26 13:00:00 19.2 10 Nordeste 23 Nordeste 0 -- -- 33
2019-03-26 12:00:00 16.5 12 Este 32 Nordeste 0 -- -- 36
2019-03-26 11:00:00 12.9 16 Este 40 Nordeste 0 -- -- 39
2019-03-26 10:00:00 12 21 Nordeste 54 Este 0 -- -- 42
2019-03-26 09:00:00 9.1 25 Nordeste 48 Nordeste 0 -- -- 47
2019-03-26 08:00:00 7 23 Nordeste 44 Este 0 -- -- 51
2019-03-26 07:00:00 6.2 23 Nordeste 51 Nordeste 0 -- -- 53
2019-03-26 06:00:00 6.1 20 Nordeste 47 Este 0 -- -- 53
2019-03-26 05:00:00 6.4 16 Nordeste 51 Nordeste 0 -- -- 52
2019-03-26 04:00:00 6.9 25 Este 61 Este 0 -- -- 49
2019-03-26 03:00:00 7.5 25 Nordeste 54 Este 0 -- -- 48
2019-03-26 02:00:00 8 24 Este 49 Nordeste 0 -- -- 44
2019-03-26 01:00:00 9.1 21 Este 47 Este 0 -- -- 39
2019-03-26 00:00:00 10.6 21 Este 42 Nordeste 0 -- -- 34
2019-03-25 23:00:00 11.8 24 Este 44 Este 0 -- -- 32
2019-03-25 22:00:00 13.1 16 Nordeste 40 Este 0 -- -- 30
2019-03-25 21:00:00 15.6 15 Nordeste 39 Nordeste 0 -- -- 27
2019-03-25 20:00:00 17.4 9 Nordeste 28 Este 0 -- -- 25
2019-03-25 19:00:00 18.9 12 Este 23 Este 0 -- -- 24
2019-03-25 18:00:00 20.3 11 Este 24 Nordeste 0 -- -- 24
2019-03-25 17:00:00 20.7 8 Este 27 Nordeste 0 -- -- 26
2019-03-25 16:00:00 21.2 10 Este 23 Este 0 -- -- 25
2019-03-25 15:00:00 21.1 11 Este 31 Este 0 -- -- 25
2019-03-25 14:00:00 20.2 9 Este 24 Nordeste 0 -- -- 27
2019-03-25 13:00:00 19.8 9 Este 26 Este 0 -- -- 29
2019-03-25 12:00:00 18.9 14 Nordeste 32 Este 0 -- -- 31
2019-03-25 11:00:00 16.4 15 Este 34 Este 0 -- -- 36
2019-03-25 10:00:00 14.2 15 Nordeste 36 Nordeste 0 -- -- 39
2019-03-25 09:00:00 12.8 18 Nordeste 35 Nordeste 0 -- -- 42
2019-03-25 08:00:00 7.8 5 Nordeste 14 Nordeste 0 -- -- 50
2019-03-25 07:00:00 8.9 7 Nordeste 22 Nordeste 0 -- -- 45
2019-03-25 06:00:00 10 13 Nordeste 24 Nordeste 0 -- -- 44
2019-03-25 05:00:00 10.2 11 Nordeste 21 Nordeste 0 -- -- 45
2019-03-25 04:00:00 6.9 12 Nordeste 19 Nordeste 0 -- -- 50
2019-03-25 03:00:00 8.7 8 Nordeste 15 Nordeste 0 -- -- 43
2019-03-25 02:00:00 9.7 10 Nordeste 14 Nordeste 0 -- -- 41
2019-03-25 01:00:00 11 8 Nordeste 10 Nordeste 0 -- -- 38
2019-03-25 00:00:00 13.1 3 Sudeste 15 Sudeste 0 -- -- 35
2019-03-24 23:00:00 12 3 Sur 9 Sur 0 -- -- 36
2019-03-24 22:00:00 13.3 4 Sur 7 Sur 0 -- -- 32
2019-03-24 21:00:00 16.7 4 Sur 15 Sudoeste 0 -- -- 28
2019-03-24 20:00:00 17.1 6 Este 13 Sudeste 0 -- -- 26
2019-03-24 19:00:00 19.5 3 Sudeste 15 Sudeste 0 -- -- 24
2019-03-24 18:00:00 20.4 3 Sudeste 15 Nordeste 0 -- -- 24
2019-03-24 17:00:00 20.3 6 Este 24 Este 0 -- -- 25
2019-03-24 16:00:00 21.4 13 Nordeste 26 Nordeste 0 -- -- 25
2019-03-24 15:00:00 20.8 10 Este 31 Este 0 -- -- 25
2019-03-24 14:00:00 19.6 5 Este 27 Sudeste 0 -- -- 27
2019-03-24 13:00:00 18.4 10 Este 29 Este 0 -- -- 29
2019-03-24 12:00:00 18.3 9 Este 26 Este 0 -- -- 33
2019-03-24 11:00:00 17.2 11 Nordeste 23 Este 0 -- -- 37
2019-03-24 10:00:00 13.9 12 Este 24 Este 0 -- -- 43
2019-03-24 09:00:00 10.3 5 Nordeste 19 Este 0 -- -- 57
2019-03-24 08:00:00 7.3 8 Nordeste 17 Nordeste 0 -- -- 62
2019-03-24 07:00:00 6.4 8 Nordeste 14 Este 0 -- -- 64
2019-03-24 06:00:00 7.2 4 Este 10 Este 0 -- -- 61
2019-03-24 05:00:00 7.7 6 Nordeste 10 Nordeste 0 -- -- 58
2019-03-24 04:00:00 8.5 5 Nordeste 10 Nordeste 0 -- -- 49
2019-03-24 03:00:00 10.9 6 Nordeste 12 Sudeste 0 -- -- 44
2019-03-24 02:00:00 12.6 4 Sudeste 12 Sudeste 0 -- -- 42
2019-03-24 01:00:00 12.3 3 Sudeste 11 Sudeste 0 -- -- 42
2019-03-24 00:00:00 13.1 3 Sur 17 Sur 0 -- -- 40
2019-03-23 23:00:00 14 6 Sur 20 Sur 0 -- -- 38
2019-03-23 22:00:00 15 8 Sur 22 Sur 0 -- -- 37
2019-03-23 21:00:00 16 6 Sudeste 19 Sudeste 0 -- -- 34
2019-03-23 20:00:00 16.7 6 Sudeste 20 Sudeste 0 -- -- 32
2019-03-23 19:00:00 17.4 7 Sur 24 Sur 0 -- -- 31
2019-03-23 18:00:00 18.7 5 Sudeste 18 Este 0 -- -- 29
2019-03-23 17:00:00 18.7 5 Este 19 Sudeste 0 -- -- 29
2019-03-23 16:00:00 18.6 4 Sudeste 28 Este 0 -- -- 29
2019-03-23 15:00:00 19.5 10 Este 23 Este 0 -- -- 28
2019-03-23 14:00:00 19 11 Este 27 Este 0 -- -- 30
2019-03-23 13:00:00 18.1 13 Este 35 Nordeste 0 -- -- 31
2019-03-23 12:00:00 17.2 14 Este 27 Este 0 -- -- 35
2019-03-23 11:00:00 16.4 12 Nordeste 21 Nordeste 0 -- -- 38
2019-03-23 10:00:00 13.8 8 Nordeste 15 Nordeste 0 -- -- 44
2019-03-23 09:00:00 8.2 2 Sudoeste 4 Sudoeste 0 -- -- 63
2019-03-23 08:00:00 3.1 4 Noroeste 6 Norte 0 -- -- 78
2019-03-23 07:00:00 3 5 Norte 6 Norte 0 -- -- 76
2019-03-23 06:00:00 3.8 0 Calma 3 Oeste 0 -- -- 73
2019-03-23 05:00:00 4.4 0 Calma -- -- 0 -- -- 68
2019-03-23 04:00:00 5.6 0 Calma 3 Oeste 0 -- -- 64
2019-03-23 03:00:00 6.6 0 Calma 10 Norte 0 -- -- 59
2019-03-23 02:00:00 7.8 5 Norte 9 Nordeste 0 -- -- 54
2019-03-23 01:00:00 9.5 0 Calma 8 Norte 0 -- -- 48
2019-03-23 00:00:00 12.5 3 Sur 19 Sur 0 -- -- 42
2019-03-22 23:00:00 12.9 4 Sudeste 19 Sur 0 -- -- 40
2019-03-22 22:00:00 13.8 5 Sur 22 Sur 0 -- -- 38
2019-03-22 21:00:00 11.5 3 Oeste 5 Oeste 0 -- -- 37
2019-03-22 20:00:00 13.5 4 Sudoeste 12 Sudoeste 0 -- -- 34
2019-03-22 19:00:00 16.6 3 Este 18 Nordeste 0 -- -- 30
2019-03-22 18:00:00 17.6 8 Nordeste 20 Nordeste 0 -- -- 28
2019-03-22 17:00:00 18.1 3 Este 22 Este 0 -- -- 28
2019-03-22 16:00:00 18.2 12 Este 28 Este 0 -- -- 28
2019-03-22 15:00:00 17 9 Este 30 Este 0 -- -- 28
2019-03-22 14:00:00 16.7 9 Este 21 Este 0 -- -- 30
2019-03-22 13:00:00 15 9 Este 19 Este 0 -- -- 33
2019-03-22 12:00:00 13.3 7 Este 18 Este 0 -- -- 35
2019-03-22 11:00:00 12.2 3 Este 14 Este 0 -- -- 37
2019-03-22 10:00:00 10.5 6 Noroeste 11 Noroeste 0 -- -- 47
2019-03-22 09:00:00 4.4 0 Calma 5 Norte 0 -- -- 64
2019-03-22 08:00:00 0.1 2 Nordeste 7 Nordeste 0 -- -- 73
2019-03-22 07:00:00 -0.2 2 Norte 4 Noroeste 0 -- -- 68
2019-03-22 06:00:00 1 0 Calma 3 Este 0 -- -- 62
2019-03-22 05:00:00 1.8 0 Calma 5 Nordeste 0 -- -- 57
2019-03-22 04:00:00 2.8 2 Noroeste 8 Noroeste 0 -- -- 52
2019-03-22 03:00:00 5 5 Noroeste 14 Sur 0 -- -- 46
2019-03-22 02:00:00 8 5 Sudeste 17 Sudeste 0 -- -- 41
2019-03-22 01:00:00 8.8 4 Sudeste 18 Sudeste 0 -- -- 40
2019-03-22 00:00:00 9.3 6 Sudeste 22 Sur 0 -- -- 41
2019-03-21 23:00:00 6.6 5 Nordeste 8 Norte 0 -- -- 43
2019-03-21 22:00:00 7.6 0 Calma 5 Noroeste 0 -- -- 40
2019-03-21 21:00:00 8.7 0 Calma 6 Oeste 0 -- -- 37
2019-03-21 20:00:00 10.5 5 Nordeste 10 Nordeste 0 -- -- 34
2019-03-21 19:00:00 13.4 3 Norte 13 Nordeste 0 -- -- 31
2019-03-21 18:00:00 14.8 5 Este 21 Este 0 -- -- 30
2019-03-21 17:00:00 14.8 5 Sudeste 20 Sudeste 0 -- -- 29
2019-03-21 16:00:00 15.9 4 Nordeste 16 Oeste 0 -- -- 30
2019-03-21 15:00:00 14.4 3 Sudeste 17 Sur 0 -- -- 34
2019-03-21 14:00:00 13.4 4 Sudeste 18 Sudoeste 0 -- -- 36
2019-03-21 13:00:00 12.9 2 Sur 13 Sudoeste 0 -- -- 39
2019-03-21 12:00:00 11.6 4 Sur 15 Sudoeste 0 -- -- 40
2019-03-21 11:00:00 10.6 5 Sudoeste 17 Sudoeste 0 -- -- 40
2019-03-21 10:00:00 9 5 Este 15 Este 0 -- -- 44
2019-03-21 09:00:00 6 0 Calma 5 Oeste 0 -- -- 54
2019-03-21 08:00:00 2.2 0 Calma 11 Nordeste 0 -- -- 58
2019-03-21 07:00:00 1.7 7 Nordeste 10 Nordeste 0 -- -- 56
2019-03-21 06:00:00 3.1 9 Nordeste 17 Nordeste 0 -- -- 52
2019-03-21 05:00:00 3.7 10 Nordeste 17 Nordeste 0 -- -- 51
2019-03-21 04:00:00 3.9 10 Nordeste 18 Nordeste 0 -- -- 48
2019-03-21 03:00:00 5.5 10 Nordeste 18 Nordeste 0 -- -- 44
2019-03-21 02:00:00 6.6 9 Este 32 Este 0 -- -- 41
2019-03-21 01:00:00 7.6 17 Nordeste 36 Este 0 -- -- 39
2019-03-21 00:00:00 8.5 19 Nordeste 37 Nordeste 0 -- -- 37
2019-03-20 23:00:00 9.8 16 Nordeste 32 Este 0 -- -- 34
2019-03-20 22:00:00 10.5 13 Nordeste 30 Nordeste 0 -- -- 34
2019-03-20 21:00:00 9.2 6 Nordeste 12 Nordeste 0 -- -- 36
2019-03-20 20:00:00 11.5 8 Nordeste 17 Nordeste 0 -- -- 33
2019-03-20 19:00:00 13.4 6 Este 21 Nordeste 0 -- -- 31
2019-03-20 18:00:00 14.2 6 Este 21 Sudeste 0 -- -- 31
2019-03-20 17:00:00 15 9 Este 24 Este 0 -- -- 31
2019-03-20 16:00:00 14.7 12 Este 26 Este 0 -- -- 31
2019-03-20 15:00:00 14.2 11 Este 24 Este 0 -- -- 33
2019-03-20 14:00:00 13.3 9 Nordeste 27 Nordeste 0 -- -- 36
2019-03-20 13:00:00 12.8 12 Nordeste 33 Este 0 -- -- 38
2019-03-20 12:00:00 12.1 14 Nordeste 39 Este 0 -- -- 40
2019-03-20 11:00:00 9.7 16 Nordeste 37 Este 0 -- -- 45
2019-03-20 10:00:00 8.4 19 Este 38 Este 0 -- -- 50
2019-03-20 09:00:00 6.7 16 Este 34 Este 0 -- -- 53
2019-03-20 08:00:00 4.4 11 Nordeste 24 Nordeste 0 -- -- 59
2019-03-20 07:00:00 3.2 9 Nordeste 19 Nordeste 0 -- -- 61
2019-03-20 06:00:00 4 9 Nordeste 18 Este 0 -- -- 58
2019-03-20 05:00:00 4.5 13 Este 30 Este 0 -- -- 56
2019-03-20 04:00:00 4.9 17 Este 34 Este 0 -- -- 55
2019-03-20 03:00:00 5.6 13 Este 32 Este 0 -- -- 52
2019-03-20 02:00:00 6.5 12 Este 23 Este 0 -- -- 50
2019-03-20 01:00:00 7.1 11 Este 22 Este 0 -- -- 49
2019-03-20 00:00:00 7.3 10 Nordeste 21 Nordeste 0 -- -- 49
2019-03-19 23:00:00 7.5 11 Nordeste 22 Nordeste 0 -- -- 46
2019-03-19 22:00:00 8.9 13 Nordeste 28 Nordeste 0 -- -- 43
2019-03-19 21:00:00 10 13 Nordeste 31 Nordeste 0 -- -- 41
2019-03-19 20:00:00 11.1 11 Nordeste 33 Nordeste 0 -- -- 39
2019-03-19 19:00:00 13 14 Nordeste 34 Nordeste 0 -- -- 37
2019-03-19 18:00:00 15.3 10 Nordeste 39 Nordeste 0 -- -- 34
2019-03-19 17:00:00 16.4 14 Nordeste 33 Nordeste 0 -- -- 34
2019-03-19 16:00:00 17 15 Norte 33 Norte 0 -- -- 33
2019-03-19 15:00:00 15.6 15 Nordeste 31 Nordeste 0 -- -- 35
2019-03-19 14:00:00 15.4 10 Nordeste 39 Nordeste 0 -- -- 34
2019-03-19 13:00:00 14.4 14 Norte 30 Nordeste 0 -- -- 37
2019-03-19 12:00:00 14.2 12 Nordeste 30 Este 0 -- -- 38
2019-03-19 11:00:00 14.1 12 Nordeste 31 Norte 0 -- -- 38
2019-03-19 10:00:00 12.6 9 Norte 26 Nordeste 0 -- -- 41
2019-03-19 09:00:00 10.5 13 Nordeste 22 Nordeste 0 -- -- 45
2019-03-19 08:00:00 7.3 5 Este 15 Nordeste 0 -- -- 51
2019-03-19 07:00:00 6.4 8 Nordeste 18 Nordeste 0 -- -- 52
2019-03-19 06:00:00 5.4 3 Norte 13 Este 0 -- -- 55
2019-03-19 05:00:00 6.5 4 Norte 18 Nordeste 0 -- -- 51
2019-03-19 04:00:00 6.1 5 Nordeste 23 Este 0 -- -- 51
2019-03-19 03:00:00 6.4 10 Este 23 Este 0 -- -- 50
2019-03-19 02:00:00 6.8 5 Este 21 Este 0 -- -- 49
2019-03-19 01:00:00 7.2 6 Nordeste 35 Este 0 -- -- 46
2019-03-19 00:00:00 8 16 Este 39 Este 0 -- -- 43